Time;durP1;ratioP1;P1;durP2;ratioP2;P2;SDS_P1;SDS_P2;PMS_P1;PMS_P2;Temp;Humidity;BMP_temperature;BMP_pressure;BME280_temperature;BME280_humidity;BME280_pressure;Samples;Min_cycle;Max_cycle;Signal;HPM_P1;HPM_P2
2022/03/28 00:00:46;;;;;;;17.33;9.33;;;;;;;7.66;58.76;96462.22;6094922;23;20153;-82
2022/03/28 00:03:12;;;;;;;16.83;8.40;;;;;;;7.81;58.15;96469.84;6069966;23;20161;-81
2022/03/28 00:05:38;;;;;;;14.60;8.77;;;;;;;7.84;57.42;96460.09;6094962;23;20208;-82
2022/03/28 00:08:04;;;;;;;14.00;8.80;;;;;;;7.90;55.97;96462.28;6071066;23;20161;-82
2022/03/28 00:10:29;;;;;;;15.67;8.70;;;;;;;7.98;55.13;96461.72;6095129;23;20639;-80
2022/03/28 00:12:54;;;;;;;15.30;8.67;;;;;;;8.06;54.04;96454.25;6070219;23;20156;-80
2022/03/28 00:15:20;;;;;;;17.27;8.97;;;;;;;8.17;53.23;96451.72;6094946;23;20177;-81
2022/03/28 00:17:45;;;;;;;16.37;9.53;;;;;;;8.24;52.26;96452.09;6071231;23;20558;-81
2022/03/28 00:20:11;;;;;;;18.03;8.80;;;;;;;8.35;51.39;96447.00;6071194;23;20161;-82
2022/03/28 00:22:40;;;;;;;15.43;9.00;;;;;;;8.45;50.48;96447.16;6068682;23;20167;-82
2022/03/28 00:25:10;;;;;;;14.20;8.47;;;;;;;8.54;48.71;96440.47;6094642;23;20686;-81
2022/03/28 00:27:35;;;;;;;19.03;8.80;;;;;;;8.63;47.61;96444.97;6070417;23;20167;-82
2022/03/28 00:30:00;;;;;;;18.47;9.23;;;;;;;8.75;45.85;96436.28;6070891;23;20513;-82
2022/03/28 00:32:26;;;;;;;14.77;8.80;;;;;;;8.64;46.28;96438.84;6118453;23;20378;-83
2022/03/28 00:34:51;;;;;;;14.60;8.80;;;;;;;8.63;45.77;96437.19;6070458;23;20527;-82
2022/03/28 00:37:17;;;;;;;14.23;8.20;;;;;;;8.56;45.84;96430.81;6095462;23;20157;-83
2022/03/28 00:39:43;;;;;;;15.33;8.07;;;;;;;8.48;45.91;96431.38;6095243;23;20165;-83
2022/03/28 00:42:08;;;;;;;17.33;7.60;;;;;;;8.48;45.92;96426.19;6070267;23;20499;-82
2022/03/28 00:44:34;;;;;;;16.23;8.77;;;;;;;8.45;45.27;96424.66;6071285;23;20528;-81
2022/03/28 00:47:00;;;;;;;14.60;8.80;;;;;;;8.45;44.79;96419.50;6071440;23;20172;-81
2022/03/28 00:49:26;;;;;;;13.80;8.53;;;;;;;8.44;44.24;96419.59;6094417;23;20239;-82
2022/03/28 00:51:52;;;;;;;15.07;8.07;;;;;;;8.49;43.95;96425.28;6070408;23;20188;-82
2022/03/28 00:54:18;;;;;;;13.13;8.43;;;;;;;8.50;43.49;96414.00;6070806;23;20271;-82
2022/03/28 00:56:45;;;;;;;13.27;7.90;;;;;;;8.52;42.99;96418.09;6070742;23;20172;-83
2022/03/28 00:59:11;;;;;;;15.27;8.87;;;;;;;8.61;42.72;96414.00;6071259;23;20165;-81
2022/03/28 01:01:36;;;;;;;15.37;9.47;;;;;;;8.71;42.13;96417.56;6094458;23;20225;-80
2022/03/28 01:04:04;;;;;;;16.20;9.60;;;;;;;8.65;42.30;96409.41;6096108;23;20148;-81
2022/03/28 01:06:32;;;;;;;15.03;9.07;;;;;;;8.68;42.22;96411.78;6098438;23;20495;-82
2022/03/28 01:08:57;;;;;;;19.70;9.97;;;;;;;8.71;41.76;96417.56;6098515;23;20156;-82
2022/03/28 01:11:24;;;;;;;16.90;9.23;;;;;;;8.76;41.55;96401.69;6097269;23;20172;-82
2022/03/28 01:13:49;;;;;;;16.10;9.57;;;;;;;8.86;41.75;96415.59;6074153;23;20204;-82
2022/03/28 01:16:15;;;;;;;16.17;9.07;;;;;;;8.77;41.83;96409.34;6097445;23;20173;-82
2022/03/28 01:18:47;;;;;;;16.97;10.10;;;;;;;8.80;42.26;96397.91;6122446;23;20188;-82
2022/03/28 01:21:13;;;;;;;16.30;9.27;;;;;;;8.80;42.48;96403.09;6073454;23;20227;-82
2022/03/28 01:23:39;;;;;;;15.40;9.90;;;;;;;8.71;42.90;96402.03;6120925;23;20184;-82
2022/03/28 01:26:04;;;;;;;19.57;9.40;;;;;;;8.69;42.93;96403.09;6073665;23;20299;-82
2022/03/28 01:28:29;;;;;;;19.70;10.10;;;;;;;8.59;43.29;96392.59;6122362;23;20243;-82
2022/03/28 01:30:55;;;;;;;17.53;9.80;;;;;;;8.61;43.59;96400.25;6097853;23;20160;-82
2022/03/28 01:33:21;;;;;;;16.83;10.40;;;;;;;8.61;43.72;96390.72;6072800;23;20181;-82
2022/03/28 01:35:46;;;;;;;17.20;10.00;;;;;;;8.65;42.83;96394.69;6097869;23;20183;-82
2022/03/28 01:38:14;;;;;;;18.60;9.70;;;;;;;8.63;42.87;96391.41;6096490;23;20248;-83
2022/03/28 01:40:43;;;;;;;19.13;9.97;;;;;;;8.58;42.84;96385.78;6096934;23;20239;-82
2022/03/28 01:43:09;;;;;;;17.80;8.73;;;;;;;8.59;43.31;96386.59;6096438;23;20152;-81
2022/03/28 01:45:34;;;;;;;14.33;9.13;;;;;;;8.56;43.20;96379.84;6096428;23;20212;-82
2022/03/28 01:47:59;;;;;;;16.80;10.43;;;;;;;8.50;43.00;96381.16;6096799;23;20167;-81
2022/03/28 01:50:25;;;;;;;15.50;10.03;;;;;;;8.54;42.64;96381.75;6097727;23;20179;-82
2022/03/28 01:52:51;;;;;;;18.97;10.43;;;;;;;8.50;42.17;96375.16;6071210;23;20164;-82
2022/03/28 01:55:16;;;;;;;15.57;9.93;;;;;;;8.55;42.16;96378.22;6071741;23;20251;-82
2022/03/28 01:57:43;;;;;;;20.70;9.93;;;;;;;8.48;42.21;96377.00;6072141;23;20171;-82
2022/03/28 02:00:12;;;;;;;18.30;10.53;;;;;;;8.50;42.00;96375.16;6072259;23;20156;-82
2022/03/28 02:02:38;;;;;;;17.80;9.60;;;;;;;8.49;42.12;96369.16;6095635;23;20171;-82
2022/03/28 02:05:11;;;;;;;18.33;9.40;;;;;;;8.49;42.00;96373.50;6071792;23;20212;-82
2022/03/28 02:07:37;;;;;;;17.20;10.17;;;;;;;8.46;41.84;96369.38;6096813;23;20152;-81
2022/03/28 02:10:02;;;;;;;16.27;10.17;;;;;;;8.59;41.94;96371.06;6084673;23;20161;-81
2022/03/28 02:12:28;;;;;;;15.43;9.57;;;;;;;8.55;41.82;96362.69;6122353;23;20228;-81
2022/03/28 02:14:53;;;;;;;19.17;11.13;;;;;;;8.46;42.05;96368.53;6099011;23;20215;-81
2022/03/28 02:17:18;;;;;;;16.70;9.97;;;;;;;8.36;42.20;96359.81;6123546;23;20137;-80
2022/03/28 02:19:44;;;;;;;15.70;9.67;;;;;;;8.35;42.50;96360.75;6081321;23;20255;-81
2022/03/28 02:22:09;;;;;;;18.63;9.70;;;;;;;8.38;42.89;96355.34;6070838;23;20195;-81
2022/03/28 02:24:34;;;;;;;16.97;9.90;;;;;;;8.54;42.30;96361.03;6074811;23;20192;-81
2022/03/28 02:27:00;;;;;;;18.03;9.83;;;;;;;8.50;42.58;96357.03;6112152;23;20165;-81
2022/03/28 02:29:25;;;;;;;17.90;9.83;;;;;;;8.47;42.64;96344.31;6072163;23;20160;-81
2022/03/28 02:31:50;;;;;;;17.50;10.57;;;;;;;8.34;42.87;96351.31;6071158;23;20160;-81
2022/03/28 02:34:16;;;;;;;18.00;9.70;;;;;;;8.28;42.95;96350.00;6098196;23;20181;-82
2022/03/28 02:36:41;;;;;;;16.57;10.13;;;;;;;8.32;43.49;96340.28;6097549;23;20191;-82
2022/03/28 02:39:06;;;;;;;18.80;10.57;;;;;;;8.21;43.46;96336.69;6097888;23;20187;-82
2022/03/28 02:41:32;;;;;;;19.30;10.20;;;;;;;8.19;43.87;96346.34;6072917;23;20643;-82
2022/03/28 02:43:57;;;;;;;16.67;9.53;;;;;;;8.14;43.91;96338.09;6074381;23;20157;-83
2022/03/28 02:46:22;;;;;;;19.13;11.23;;;;;;;8.12;44.14;96339.13;6097725;23;20185;-82
2022/03/28 02:48:48;;;;;;;15.43;10.70;;;;;;;8.02;44.73;96333.81;6105619;23;20160;-81
2022/03/28 02:51:13;;;;;;;17.37;10.43;;;;;;;8.01;45.33;96337.34;6099554;23;20156;-81
2022/03/28 02:53:38;;;;;;;17.40;10.07;;;;;;;7.94;44.96;96334.38;6070751;23;20180;-82
2022/03/28 02:56:04;;;;;;;17.27;10.47;;;;;;;7.94;45.20;96330.97;6070506;23;20346;-81
2022/03/28 02:58:29;;;;;;;15.23;10.03;;;;;;;7.89;45.34;96327.91;6119340;23;20615;-81
2022/03/28 03:00:55;;;;;;;16.73;10.27;;;;;;;7.88;45.87;96329.66;6094747;23;20161;-81
2022/03/28 03:03:20;;;;;;;21.87;10.37;;;;;;;7.82;46.14;96324.94;6070170;23;20157;-82
2022/03/28 03:05:46;;;;;;;18.07;10.87;;;;;;;7.90;45.84;96326.97;6071161;23;20184;-82
2022/03/28 03:08:11;;;;;;;16.30;10.60;;;;;;;7.80;46.37;96321.66;6119344;23;20164;-82
2022/03/28 03:10:37;;;;;;;18.23;11.33;;;;;;;7.77;46.53;96321.03;6071396;23;20486;-82
2022/03/28 03:13:02;;;;;;;19.47;10.60;;;;;;;7.84;46.47;96315.31;6094258;23;20188;-81
2022/03/28 03:15:27;;;;;;;20.07;10.57;;;;;;;7.82;46.43;96317.19;6095764;23;20176;-81
2022/03/28 03:17:53;;;;;;;17.10;11.17;;;;;;;7.85;45.98;96310.94;6071981;23;20169;-81
2022/03/28 03:20:18;;;;;;;16.50;10.00;;;;;;;7.91;45.56;96313.91;6095859;23;20207;-81
2022/03/28 03:22:43;;;;;;;21.47;10.40;;;;;;;7.97;45.61;96309.25;6093397;23;20153;-81
2022/03/28 03:25:09;;;;;;;16.60;10.70;;;;;;;8.00;45.09;96320.19;6071384;23;20625;-82
2022/03/28 03:27:38;;;;;;;15.60;10.57;;;;;;;7.94;45.28;96307.69;6095051;23;20157;-81
2022/03/28 03:30:10;;;;;;;17.47;10.77;;;;;;;8.01;45.26;96308.91;6094993;23;20159;-81
2022/03/28 03:32:36;;;;;;;23.73;11.27;;;;;;;8.10;45.10;96305.63;6069652;23;20224;-81
2022/03/28 03:35:05;;;;;;;18.07;10.80;;;;;;;8.07;45.35;96305.88;6094607;23;20184;-82
2022/03/28 03:37:30;;;;;;;17.13;10.90;;;;;;;8.06;45.25;96304.22;6095081;23;20236;-81
2022/03/28 03:39:55;;;;;;;19.53;11.60;;;;;;;8.00;45.46;96302.06;6071014;23;20168;-80
2022/03/28 03:42:20;;;;;;;23.70;12.33;;;;;;;7.98;45.29;96303.94;6094768;23;20219;-81
2022/03/28 03:44:46;;;;;;;19.33;12.30;;;;;;;8.08;45.16;96304.91;6095285;23;20565;-80
2022/03/28 03:47:11;;;;;;;18.07;11.17;;;;;;;8.25;44.64;96293.31;6070857;23;20536;-82
2022/03/28 03:49:36;;;;;;;17.90;10.47;;;;;;;8.28;44.54;96307.78;6096494;23;20153;-81
2022/03/28 03:52:02;;;;;;;18.00;10.50;;;;;;;8.40;44.27;96301.72;6094198;23;20164;-80
2022/03/28 03:54:28;;;;;;;18.90;11.37;;;;;;;8.36;44.38;96300.28;6070923;23;20176;-82
2022/03/28 03:56:53;;;;;;;19.93;11.97;;;;;;;8.41;43.99;96300.78;6071648;23;20182;-79
2022/03/28 03:59:18;;;;;;;23.67;11.63;;;;;;;8.58;43.48;96297.75;6096054;23;20184;-79
2022/03/28 04:01:43;;;;;;;18.23;10.87;;;;;;;8.65;42.78;96298.91;6090017;23;20156;-79
2022/03/28 04:04:12;;;;;;;19.57;12.47;;;;;;;8.60;43.24;96298.44;6067450;23;20149;-79
2022/03/28 04:06:37;;;;;;;16.40;10.93;;;;;;;8.64;43.22;96302.44;6069033;23;20436;-79
2022/03/28 04:09:03;;;;;;;20.17;11.40;;;;;;;8.69;43.32;96296.91;6069206;23;20214;-79
2022/03/28 04:11:28;;;;;;;19.47;11.07;;;;;;;8.75;42.68;96293.88;6068158;23;20164;-81
2022/03/28 04:13:53;;;;;;;21.37;12.23;;;;;;;8.76;42.76;96303.28;6069596;23;20227;-77
2022/03/28 04:16:19;;;;;;;19.93;11.67;;;;;;;8.73;42.55;96299.13;6070120;23;20184;-78
2022/03/28 04:18:44;;;;;;;22.00;11.53;;;;;;;8.78;42.41;96301.38;6069816;23;20505;-78
2022/03/28 04:21:09;;;;;;;22.40;11.70;;;;;;;8.72;43.02;96296.66;6092668;23;20157;-78
2022/03/28 04:23:34;;;;;;;18.87;11.43;;;;;;;8.59;43.67;96299.38;6069213;23;20159;-79
2022/03/28 04:26:00;;;;;;;21.27;12.93;;;;;;;8.68;42.79;96300.47;6118195;23;20168;-79
2022/03/28 04:28:25;;;;;;;18.50;11.87;;;;;;;8.62;42.79;96291.38;6093570;23;20159;-80
2022/03/28 04:30:51;;;;;;;18.03;11.00;;;;;;;8.55;43.67;96303.13;6093587;23;20160;-80
2022/03/28 04:33:17;;;;;;;19.53;11.60;;;;;;;8.52;43.22;96300.78;6068754;23;20168;-78
2022/03/28 04:35:43;;;;;;;23.87;11.87;;;;;;;8.50;43.55;96294.91;6093402;23;20235;-79
2022/03/28 04:38:09;;;;;;;23.40;12.03;;;;;;;8.44;43.62;96300.53;6069218;23;20192;-79
2022/03/28 04:40:36;;;;;;;18.50;11.60;;;;;;;8.43;43.80;96293.72;6096592;23;20186;-79
2022/03/28 04:43:01;;;;;;;21.90;12.13;;;;;;;8.33;44.26;96290.16;6072204;23;20145;-78
2022/03/28 04:45:27;;;;;;;18.03;11.33;;;;;;;8.34;43.97;96294.38;6072717;23;20314;-78
2022/03/28 04:47:52;;;;;;;17.87;11.37;;;;;;;8.20;44.11;96290.22;6096604;23;20157;-78
2022/03/28 04:50:18;;;;;;;17.80;11.63;;;;;;;8.18;44.34;96289.53;6096790;23;20160;-79
2022/03/28 04:52:43;;;;;;;22.37;13.13;;;;;;;8.12;44.13;96287.41;6096472;23;20152;-80
2022/03/28 04:55:09;;;;;;;21.03;11.93;;;;;;;8.08;44.69;96291.97;6096581;23;20192;-80
2022/03/28 04:57:34;;;;;;;19.37;11.63;;;;;;;8.05;45.17;96288.81;6096630;23;20619;-79
2022/03/28 05:00:00;;;;;;;18.07;11.83;;;;;;;8.18;45.12;96290.34;6121526;23;20183;-79
2022/03/28 05:02:25;;;;;;;18.00;11.77;;;;;;;8.17;45.03;96291.31;6095928;23;20157;-78
2022/03/28 05:04:50;;;;;;;18.50;11.83;;;;;;;8.18;45.09;96295.53;6095783;23;20172;-80
2022/03/28 05:07:25;;;;;;;20.17;11.77;;;;;;;8.12;45.01;96301.16;6097197;23;20152;-79
2022/03/28 05:09:51;;;;;;;17.63;11.33;;;;;;;7.95;45.70;96291.22;6072928;23;20164;-80
2022/03/28 05:12:16;;;;;;;20.37;11.57;;;;;;;7.88;45.53;96296.06;6096404;23;20303;-80
2022/03/28 05:14:42;;;;;;;16.53;11.50;;;;;;;8.00;45.57;96291.72;6097530;23;20255;-81
2022/03/28 05:17:07;;;;;;;20.37;11.43;;;;;;;8.00;45.44;96289.13;6123825;23;20239;-83
2022/03/28 05:19:32;;;;;;;19.17;11.40;;;;;;;8.03;45.25;96296.66;6074113;23;20160;-81
2022/03/28 05:21:58;;;;;;;18.50;11.27;;;;;;;7.95;45.74;96296.41;6072762;23;20159;-80
2022/03/28 05:24:23;;;;;;;16.67;11.00;;;;;;;7.96;45.59;96290.31;6098218;23;20161;-83
2022/03/28 05:26:49;;;;;;;18.13;10.83;;;;;;;7.96;45.85;96295.50;6098123;23;20160;-80
2022/03/28 05:29:15;;;;;;;19.97;11.70;;;;;;;7.91;46.66;96295.81;6097670;23;20262;-80
2022/03/28 05:31:41;;;;;;;18.63;11.13;;;;;;;7.80;47.71;96290.63;6072867;23;20164;-79
2022/03/28 05:34:06;;;;;;;21.13;11.27;;;;;;;7.65;47.98;96287.38;6097449;23;20260;-79
2022/03/28 05:36:32;;;;;;;15.40;10.03;;;;;;;7.60;47.78;96292.06;6079859;23;20195;-79
2022/03/28 05:38:58;;;;;;;18.23;9.97;;;;;;;7.55;48.31;96288.97;6132566;23;20176;-79
2022/03/28 05:41:23;;;;;;;18.27;10.53;;;;;;;7.51;48.88;96287.56;6136813;23;20153;-82
2022/03/28 05:43:48;;;;;;;18.40;11.30;;;;;;;7.45;50.09;96290.59;6094112;23;20157;-82
2022/03/28 05:46:14;;;;;;;18.07;11.43;;;;;;;7.43;50.15;96286.47;6093787;23;20180;-83
2022/03/28 05:48:39;;;;;;;21.70;11.33;;;;;;;7.41;49.90;96290.91;6083530;23;20164;-80
2022/03/28 05:51:04;;;;;;;20.00;10.53;;;;;;;7.45;50.39;96290.59;6095922;23;20212;-80
2022/03/28 05:53:29;;;;;;;17.53;11.10;;;;;;;7.47;49.78;96291.28;6096803;23;20176;-81
2022/03/28 05:55:55;;;;;;;17.67;10.60;;;;;;;7.49;50.38;96288.59;6096559;23;20681;-81
2022/03/28 05:58:21;;;;;;;18.43;10.77;;;;;;;7.51;50.56;96284.13;6098525;23;20161;-80
2022/03/28 06:00:46;;;;;;;16.63;10.57;;;;;;;7.53;50.80;96285.69;6097090;23;20163;-81
2022/03/28 06:03:12;;;;;;;19.93;11.77;;;;;;;7.60;50.33;96281.72;6096829;23;20215;-81
2022/03/28 06:05:37;;;;;;;16.90;11.90;;;;;;;7.65;50.62;96284.78;6097427;23;20176;-80
2022/03/28 06:08:04;;;;;;;16.63;11.53;;;;;;;7.80;50.30;96282.03;6099524;23;20156;-80
2022/03/28 06:10:29;;;;;;;21.67;11.87;;;;;;;7.93;50.10;96283.59;6099322;23;20156;-81
2022/03/28 06:12:54;;;;;;;18.50;11.43;;;;;;;8.05;49.69;96294.81;6073369;23;20500;-81
2022/03/28 06:15:20;;;;;;;19.67;11.13;;;;;;;8.17;49.13;96291.31;6075598;23;20195;-81
2022/03/28 06:17:46;;;;;;;19.83;11.50;;;;;;;8.39;48.08;96289.69;6074078;23;20161;-82
2022/03/28 06:20:12;;;;;;;18.13;11.33;;;;;;;8.48;47.24;96294.19;6122169;23;20163;-82
2022/03/28 06:22:37;;;;;;;16.27;10.60;;;;;;;8.58;46.96;96294.34;6073021;23;20455;-81
2022/03/28 06:25:04;;;;;;;17.80;11.17;;;;;;;8.67;47.47;96291.03;6095927;23;20176;-82
2022/03/28 06:27:29;;;;;;;20.70;11.13;;;;;;;8.79;47.07;96301.28;6097394;23;20480;-80
2022/03/28 06:29:55;;;;;;;19.87;11.30;;;;;;;8.91;46.74;96296.91;6096655;23;20153;-80
2022/03/28 06:32:21;;;;;;;21.77;11.40;;;;;;;8.99;46.67;96293.72;6096680;23;20205;-80
2022/03/28 06:34:48;;;;;;;19.53;11.37;;;;;;;9.12;46.44;96297.00;6072650;23;20199;-79
2022/03/28 06:37:14;;;;;;;18.63;11.03;;;;;;;9.29;45.91;96296.50;6096671;23;20185;-82
2022/03/28 06:39:39;;;;;;;14.27;10.90;;;;;;;9.42;45.07;96298.13;6096473;23;20163;-79
2022/03/28 06:42:05;;;;;;;15.43;11.20;;;;;;;9.53;44.88;96298.06;6095564;23;20145;-81
2022/03/28 06:44:30;;;;;;;16.10;11.17;;;;;;;9.60;44.45;96288.84;6071748;23;20204;-79
2022/03/28 06:46:57;;;;;;;16.03;11.00;;;;;;;9.76;44.32;96293.63;6119813;23;20619;-79
2022/03/28 06:49:22;;;;;;;17.27;10.60;;;;;;;9.84;44.87;96291.25;6095354;23;20148;-80
2022/03/28 06:51:47;;;;;;;20.17;11.80;;;;;;;9.91;44.70;96295.81;6096276;23;20156;-79
2022/03/28 06:54:14;;;;;;;21.17;11.40;;;;;;;10.02;44.55;96291.50;6121445;23;20594;-80
2022/03/28 06:56:41;;;;;;;16.47;10.93;;;;;;;10.06;44.47;96288.53;6097419;23;20198;-81
2022/03/28 06:59:08;;;;;;;17.87;11.80;;;;;;;10.11;44.82;96289.00;6096617;23;20161;-80
2022/03/28 07:01:33;;;;;;;17.23;11.60;;;;;;;10.25;44.70;96287.03;6095504;23;20247;-79
2022/03/28 07:03:59;;;;;;;16.73;10.43;;;;;;;10.35;44.80;96280.97;6071615;23;20595;-80
2022/03/28 07:06:27;;;;;;;17.73;11.07;;;;;;;10.41;45.02;96290.00;6098795;23;20438;-82
2022/03/28 07:08:53;;;;;;;17.57;10.37;;;;;;;10.54;45.63;96282.03;6095015;23;20153;-80
2022/03/28 07:11:18;;;;;;;14.70;10.03;;;;;;;10.68;45.93;96277.28;6096940;23;20148;-80
2022/03/28 07:13:44;;;;;;;15.33;10.37;;;;;;;10.81;45.84;96281.47;6098364;23;20169;-78
2022/03/28 07:16:09;;;;;;;16.17;10.40;;;;;;;10.94;44.93;96271.66;6098015;23;20192;-79
2022/03/28 07:18:35;;;;;;;18.60;10.63;;;;;;;11.06;44.35;96270.59;6098064;23;20216;-78
2022/03/28 07:21:00;;;;;;;16.23;10.60;;;;;;;11.21;43.63;96277.06;6073100;23;20171;-79
2022/03/28 07:23:25;;;;;;;17.87;10.87;;;;;;;11.34;43.48;96279.41;6073074;23;20165;-78
2022/03/28 07:25:51;;;;;;;17.13;10.87;;;;;;;11.42;43.47;96281.34;6097995;23;20246;-80
2022/03/28 07:28:17;;;;;;;15.27;9.87;;;;;;;11.57;41.89;96277.38;6075068;23;20160;-81
2022/03/28 07:30:42;;;;;;;19.10;11.80;;;;;;;11.78;40.32;96277.25;6073575;23;20164;-78
2022/03/28 07:33:08;;;;;;;18.70;10.87;;;;;;;11.91;39.72;96276.03;6096470;23;20160;-80
2022/03/28 07:35:35;;;;;;;16.43;10.43;;;;;;;11.94;39.00;96285.38;6096718;23;20664;-79
2022/03/28 07:38:01;;;;;;;17.63;11.50;;;;;;;12.02;38.14;96279.50;6072703;23;20169;-80
2022/03/28 07:40:27;;;;;;;17.70;11.87;;;;;;;12.08;37.65;96282.34;6096467;23;20243;-80
2022/03/28 07:42:53;;;;;;;18.90;12.40;;;;;;;12.30;35.89;96275.19;6072626;23;20161;-81
2022/03/28 07:45:18;;;;;;;17.73;11.07;;;;;;;12.48;37.85;96276.09;6095633;23;20184;-79
2022/03/28 07:47:44;;;;;;;15.00;10.60;;;;;;;12.60;39.46;96276.75;6071837;23;20496;-79
2022/03/28 07:50:10;;;;;;;15.13;10.63;;;;;;;12.58;39.24;96276.91;6072699;23;20200;-80
2022/03/28 07:52:36;;;;;;;16.50;11.50;;;;;;;12.76;37.91;96283.00;6072239;23;20165;-80
2022/03/28 07:55:04;;;;;;;16.30;11.33;;;;;;;12.90;37.07;96281.72;6072987;23;20275;-80
2022/03/28 07:57:30;;;;;;;18.37;11.57;;;;;;;12.85;36.85;96272.69;6097396;23;20152;-79
2022/03/28 07:59:55;;;;;;;17.17;11.40;;;;;;;12.84;36.08;96273.66;6120096;23;20674;-81
2022/03/28 08:02:21;;;;;;;18.83;11.73;;;;;;;12.73;36.06;96269.44;6095933;23;20215;-81
2022/03/28 08:04:46;;;;;;;16.93;11.73;;;;;;;12.95;35.08;96270.84;6072200;23;20259;-80
2022/03/28 08:07:12;;;;;;;17.30;11.47;;;;;;;13.04;35.29;96273.41;6072607;23;20215;-81
2022/03/28 08:09:38;;;;;;;16.83;11.60;;;;;;;13.08;35.14;96270.53;6097010;23;20157;-81
2022/03/28 08:12:05;;;;;;;17.97;12.10;;;;;;;13.12;34.83;96264.84;6096977;23;20152;-77
2022/03/28 08:14:31;;;;;;;18.93;12.20;;;;;;;13.11;34.10;96268.44;6095845;23;20188;-78
2022/03/28 08:16:56;;;;;;;17.03;11.43;;;;;;;13.15;33.95;96261.13;6120876;23;20252;-80
2022/03/28 08:19:22;;;;;;;17.77;11.77;;;;;;;13.06;34.74;96265.44;6071902;23;20165;-79
2022/03/28 08:21:47;;;;;;;16.17;11.40;;;;;;;13.06;35.49;96262.81;6119650;23;21060;-80
2022/03/28 08:24:13;;;;;;;18.00;11.73;;;;;;;13.11;35.93;96262.41;6096640;23;20203;-80
2022/03/28 08:26:38;;;;;;;17.30;10.30;;;;;;;13.18;36.84;96255.66;6096201;23;20527;-80
2022/03/28 08:29:04;;;;;;;14.40;10.57;;;;;;;13.30;37.19;96257.09;6073810;23;20164;-78
2022/03/28 08:31:30;;;;;;;16.57;10.73;;;;;;;13.41;37.64;96256.06;6097735;23;20163;-80
2022/03/28 08:33:55;;;;;;;19.23;10.93;;;;;;;13.58;39.08;96257.88;6098791;23;20176;-78
2022/03/28 08:36:22;;;;;;;15.33;9.43;;;;;;;13.76;39.51;96261.28;6074922;23;20180;-81
2022/03/28 08:38:47;;;;;;;17.20;10.47;;;;;;;13.83;38.95;96259.72;6080132;23;20187;-80
2022/03/28 08:41:14;;;;;;;17.70;10.33;;;;;;;13.84;40.53;96257.94;6071518;23;20236;-79
2022/03/28 08:43:40;;;;;;;15.40;9.70;;;;;;;14.10;40.23;96250.16;6072533;23;20160;-78
2022/03/28 08:46:08;;;;;;;14.43;9.90;;;;;;;14.16;38.72;96252.97;6119234;23;20264;-79
2022/03/28 08:48:34;;;;;;;17.27;10.60;;;;;;;14.22;39.27;96255.94;6072540;23;20167;-80
2022/03/28 08:51:01;;;;;;;13.60;9.93;;;;;;;14.00;38.42;96252.03;6095958;23;20157;-78
2022/03/28 08:53:27;;;;;;;15.17;9.47;;;;;;;14.23;38.08;96258.41;6097190;23;20152;-78
2022/03/28 08:55:52;;;;;;;17.70;10.40;;;;;;;14.33;38.04;96253.09;6077366;23;20209;-80
2022/03/28 08:58:18;;;;;;;16.43;10.67;;;;;;;14.27;36.94;96251.91;6154879;23;20166;-78
2022/03/28 09:00:43;;;;;;;17.23;10.83;;;;;;;14.54;36.48;96252.75;6129412;23;20183;-78
2022/03/28 09:03:08;;;;;;;16.57;10.13;;;;;;;14.45;36.81;96249.28;6153776;23;20209;-79
2022/03/28 09:27:17;;;;;;;13.67;10.30;;;;;;;14.88;35.91;96224.81;6096485;23;20673;-79
2022/03/28 10:00:34;;;;;;;19.40;11.53;;;;;;;15.30;37.91;96205.66;5901394;24;20265;-79
2022/03/28 10:03:06;;;;;;;19.70;11.57;;;;;;;15.26;37.62;96191.25;5891706;24;20196;-78
2022/03/28 10:05:31;;;;;;;20.47;11.97;;;;;;;15.40;37.34;96198.47;5894451;24;20250;-78
2022/03/28 10:07:57;;;;;;;15.97;10.83;;;;;;;15.35;37.49;96195.50;5894387;24;20173;-78
2022/03/28 10:10:24;;;;;;;20.93;11.93;;;;;;;15.39;37.71;96188.19;5894837;24;20233;-78
2022/03/28 10:12:49;;;;;;;17.20;11.30;;;;;;;15.44;38.05;96188.50;5893879;24;20620;-79
2022/03/28 10:15:15;;;;;;;19.83;12.13;;;;;;;15.46;37.40;96187.38;5918624;24;20608;-79
2022/03/28 10:17:41;;;;;;;16.80;10.97;;;;;;;15.51;38.17;96185.06;5921541;24;20161;-78
2022/03/28 10:20:07;;;;;;;24.53;11.97;;;;;;;15.30;37.78;96176.88;5898757;24;20161;-78
2022/03/28 10:22:37;;;;;;;18.80;12.57;;;;;;;15.29;38.03;96180.47;5895451;24;20176;-77
2022/03/28 10:25:09;;;;;;;30.17;13.00;;;;;;;15.30;37.86;96171.66;5875023;24;20188;-78
2022/03/28 10:27:36;;;;;;;22.43;12.27;;;;;;;15.55;38.37;96167.25;5898747;24;20859;-78
2022/03/28 10:30:18;;;;;;;18.90;11.90;;;;;;;15.51;38.18;96166.75;5897150;24;20168;-77
2022/03/28 10:32:43;;;;;;;16.83;11.27;;;;;;;15.47;37.55;96167.25;5896695;24;20668;-79
2022/03/28 10:35:09;;;;;;;19.33;11.03;;;;;;;15.64;38.24;96152.41;5898196;24;20197;-79
2022/03/28 10:37:34;;;;;;;20.87;10.90;;;;;;;15.56;37.69;96156.63;6013231;23;20169;-78
2022/03/28 10:40:11;;;;;;;15.63;10.90;;;;;;;15.62;38.05;96149.09;6093485;23;20600;-79
2022/03/28 10:42:37;;;;;;;19.17;11.63;;;;;;;15.52;37.33;96150.06;6096145;23;20163;-79
2022/03/28 10:45:07;;;;;;;17.23;10.57;;;;;;;15.85;37.35;96139.59;6120335;23;20184;-80
2022/03/28 10:47:48;;;;;;;19.03;10.83;;;;;;;15.95;37.57;96142.03;6096206;23;20611;-79
2022/03/28 10:50:18;;;;;;;15.67;10.77;;;;;;;15.95;37.17;96140.25;6096413;23;20145;-79
2022/03/28 10:53:16;;;;;;;15.13;10.63;;;;;;;15.96;36.89;96134.00;6071915;23;20604;-79
2022/03/28 10:55:58;;;;;;;17.27;10.50;;;;;;;15.96;35.65;96131.41;6096054;23;20188;-78
2022/03/28 10:58:25;;;;;;;18.40;11.27;;;;;;;15.99;34.39;96123.22;6096140;23;20227;-78
2022/03/28 11:01:11;;;;;;;18.30;11.80;;;;;;;16.12;35.25;96126.13;6096340;23;20207;-79
2022/03/28 11:03:47;;;;;;;14.53;10.37;;;;;;;16.30;35.96;96117.22;6120369;23;20296;-80
2022/03/28 11:26:39;;;;;;;19.97;10.33;;;;;;;16.47;34.60;96110.13;6099881;23;20219;-80
2022/03/28 11:29:07;;;;;;;18.35;11.55;;;;;;;16.68;34.33;96102.47;6072555;23;20184;-79
2022/03/28 11:31:35;;;;;;;18.05;11.68;;;;;;;16.47;34.21;96095.22;6095792;23;20160;-81
2022/03/28 11:34:07;;;;;;;21.00;11.65;;;;;;;16.53;34.47;96085.88;6096803;23;20184;-80
2022/03/28 11:36:35;;;;;;;22.65;12.10;;;;;;;16.47;33.40;96091.78;6095956;23;20172;-78
2022/03/28 11:39:04;;;;;;;15.43;11.18;;;;;;;16.52;34.95;96087.66;6071769;23;20203;-80
2022/03/28 11:41:30;;;;;;;16.27;11.32;;;;;;;16.60;33.84;96084.16;6096940;23;20191;-79
2022/03/28 11:43:57;;;;;;;21.23;11.47;;;;;;;16.64;32.48;96078.41;6072639;23;20156;-79
2022/03/28 11:46:24;;;;;;;20.98;11.73;;;;;;;16.78;32.43;96074.25;6095752;23;20175;-80
2022/03/28 11:49:04;;;;;;;18.20;11.98;;;;;;;16.83;31.83;96071.13;6071382;23;20165;-79
2022/03/28 11:51:31;;;;;;;20.02;11.65;;;;;;;16.83;32.83;96065.88;6095537;23;20587;-78
2022/03/28 11:54:18;;;;;;;17.92;11.65;;;;;;;16.65;31.30;96059.06;6095585;23;20177;-80
2022/03/28 11:59:39;;;;;;;19.30;11.63;;;;;;;16.91;32.07;96044.84;6097211;23;20152;-80
2022/03/28 12:02:06;;;;;;;15.60;10.38;;;;;;;16.94;31.13;96052.38;6121105;23;20156;-78
2022/03/28 12:04:32;;;;;;;20.75;11.68;;;;;;;16.92;30.15;96046.47;6101710;23;20232;-79
2022/03/28 12:06:57;;;;;;;19.30;11.65;;;;;;;16.97;29.79;96046.78;6088593;23;20157;-78
2022/03/28 12:09:23;;;;;;;17.30;11.13;;;;;;;17.04;30.37;96047.69;6131651;23;20506;-79
2022/03/28 12:11:51;;;;;;;16.90;11.13;;;;;;;17.34;28.29;96030.25;6094862;23;20183;-78
2022/03/28 12:14:16;;;;;;;15.30;10.63;;;;;;;17.19;27.87;96024.13;6096380;23;20215;-79
2022/03/28 12:16:55;;;;;;;15.38;11.23;;;;;;;17.50;29.42;96024.84;6093513;23;20274;-80
2022/03/28 12:19:28;;;;;;;14.95;9.80;;;;;;;17.52;27.86;96014.16;6072156;23;20583;-78
2022/03/28 12:21:56;;;;;;;17.80;10.30;;;;;;;17.51;27.48;96015.16;6096149;23;20224;-80
2022/03/28 12:24:22;;;;;;;12.73;9.90;;;;;;;17.73;28.20;96002.97;6098394;23;20236;-80
2022/03/28 12:26:49;;;;;;;16.85;10.77;;;;;;;17.73;27.73;96000.34;6101107;23;20164;-80
2022/03/28 12:29:15;;;;;;;14.40;9.65;;;;;;;17.79;27.76;96000.44;6071918;23;20156;-80
2022/03/28 12:31:42;;;;;;;16.25;10.73;;;;;;;17.91;28.65;95999.97;6072178;23;20176;-79
2022/03/28 12:34:08;;;;;;;17.35;11.07;;;;;;;17.88;25.66;95995.09;6095930;23;20181;-80
2022/03/28 12:36:35;;;;;;;20.50;11.27;;;;;;;17.65;26.51;95987.28;6071852;23;20181;-80